Terminal Aerodrome Forecast
Issued by NWS

Home | Current Version | Previous Version | Graphics & Text | Print | Product List | Glossary On
Versions: 1 2 3 4 5 6 7 8 9 10 11 12 13 14 15 16
000
FTUS43 KIWX 272300
TAFSBN
TAF
KSBN 272331Z 2800/2824 32013G25KT P6SM VCSH BKN060
     FM280200 32012KT P6SM SCT080
     FM280600 33010KT P6SM BKN015
     FM281400 34013G20KT P6SM BKN025
     FM281700 34014G22KT P6SM SCT035=

USA.gov is the U.S. government's official web portal to all federal, state and local government web resources and services.